createdAt,value
2023-02-26T00:01:27.900Z,100948.22
2023-02-26T00:03:59.983Z,100969.06
2023-02-26T00:06:35.063Z,100966.84
2023-02-26T00:09:05.663Z,100969.78
2023-02-26T00:11:36.194Z,100923.22
2023-02-26T00:14:06.722Z,100972.94
2023-02-26T00:16:38.958Z,100983.03
2023-02-26T00:19:10.978Z,100985.97
2023-02-26T00:21:44.460Z,100989.06
2023-02-26T00:24:14.606Z,100995.38
2023-02-26T00:26:44.817Z,100994.25
2023-02-26T00:29:15.637Z,101002.59
2023-02-26T00:31:46.457Z,100956.91
2023-02-26T00:34:17.157Z,101003.41
2023-02-26T00:36:55.921Z,101016.47
2023-02-26T00:39:41.271Z,101016.97
2023-02-26T00:42:12.316Z,101025.28
2023-02-26T00:44:44.166Z,101029.34
2023-02-26T00:47:25.037Z,101037.63
2023-02-26T00:50:05.352Z,101035.84
2023-02-26T00:52:47.179Z,101039.41
2023-02-26T00:55:17.456Z,101033.78
2023-02-26T00:57:47.356Z,101039.34
2023-02-26T01:00:18.873Z,101035.72
2023-02-26T01:02:51.052Z,101046.56
2023-02-26T01:05:23.917Z,101035.34
2023-02-26T01:08:04.916Z,101040.28
2023-02-26T01:10:35.993Z,101049.03
2023-02-26T01:13:06.793Z,101037.78
2023-02-26T01:15:50.684Z,101048.31
2023-02-26T01:18:25.886Z,101040.00
2023-02-26T01:21:00.598Z,101021.13
2023-02-26T01:23:38.402Z,101043.53
2023-02-26T01:26:14.645Z,101051.16
2023-02-26T01:28:46.700Z,101045.81
2023-02-26T01:31:29.303Z,101048.03
2023-02-26T01:34:03.884Z,101056.31
2023-02-26T01:36:39.130Z,101047.34
2023-02-26T01:39:21.963Z,101071.56
2023-02-26T01:41:55.211Z,101067.06
2023-02-26T01:44:30.176Z,101058.06
2023-02-26T01:47:18.920Z,101071.91
2023-02-26T01:49:51.727Z,101067.88
2023-02-26T01:53:03.497Z,101076.84
2023-02-26T01:55:36.170Z,101077.75
2023-02-26T01:58:06.831Z,101082.91
2023-02-26T02:00:37.371Z,101079.31
2023-02-26T02:03:08.234Z,101087.34
2023-02-26T02:05:45.086Z,101089.38
2023-02-26T02:08:16.065Z,101097.91
2023-02-26T02:10:51.729Z,101106.94
2023-02-26T02:13:38.108Z,101110.09
2023-02-26T02:16:20.322Z,101114.22
2023-02-26T02:18:59.137Z,101112.63
2023-02-26T02:22:10.313Z,101121.84
2023-02-26T02:24:55.760Z,101133.50
2023-02-26T02:27:38.548Z,101130.97
2023-02-26T02:30:26.908Z,101141.75
2023-02-26T02:33:03.383Z,101134.56
2023-02-26T02:35:39.294Z,101147.38
2023-02-26T02:38:17.248Z,101124.94
2023-02-26T02:40:52.515Z,101138.41
2023-02-26T02:43:26.638Z,101137.25
2023-02-26T02:46:03.484Z,101152.50
2023-02-26T02:48:39.601Z,101149.63
2023-02-26T02:51:15.443Z,101162.22
2023-02-26T02:53:50.226Z,101148.75
2023-02-26T02:56:23.477Z,101146.03
2023-02-26T02:58:58.243Z,101151.19
2023-02-26T03:01:30.672Z,101159.06
2023-02-26T03:04:08.376Z,101157.09
2023-02-26T03:06:40.721Z,101131.50
2023-02-26T03:09:12.738Z,101164.94
2023-02-26T03:11:44.801Z,101166.72
2023-02-26T03:14:18.478Z,101168.75
2023-02-26T03:17:14.802Z,101175.06
2023-02-26T03:20:05.539Z,101167.47
2023-02-26T03:22:50.387Z,101172.81
2023-02-26T03:25:29.816Z,101162.34
2023-02-26T03:28:10.426Z,101182.50
2023-02-26T03:30:47.345Z,101187.44
2023-02-26T03:33:25.198Z,101135.41
2023-02-26T03:36:06.231Z,101190.38
2023-02-26T03:38:42.126Z,101195.56
2023-02-26T03:41:15.531Z,101202.06
2023-02-26T03:43:50.940Z,101207.03
2023-02-26T03:46:28.290Z,101218.94
2023-02-26T03:49:03.478Z,101212.88
2023-02-26T03:51:38.161Z,101189.28
2023-02-26T03:54:34.155Z,101240.94
2023-02-26T03:57:27.018Z,101203.22
2023-02-26T04:00:15.566Z,101235.50
2023-02-26T04:02:51.525Z,101234.19
2023-02-26T04:05:24.329Z,101243.63
2023-02-26T04:07:57.082Z,101235.31
2023-02-26T04:10:36.422Z,101252.22
2023-02-26T04:13:06.903Z,101247.28
2023-02-26T04:15:37.158Z,101251.09
2023-02-26T04:18:08.026Z,101262.56
2023-02-26T04:20:38.326Z,101251.34
2023-02-26T04:23:11.111Z,101257.41
2023-02-26T04:25:42.980Z,101258.97
2023-02-26T04:28:14.438Z,101270.41
2023-02-26T04:30:44.785Z,101273.81
2023-02-26T04:33:16.368Z,101268.84
2023-02-26T04:35:46.545Z,101254.50
2023-02-26T04:38:19.202Z,101226.19
2023-02-26T04:40:49.799Z,101283.88
2023-02-26T04:43:20.094Z,101276.72
2023-02-26T04:46:10.195Z,101280.03
2023-02-26T04:48:40.668Z,101260.72
2023-02-26T04:51:10.787Z,101301.16
2023-02-26T04:53:43.588Z,101308.34
2023-02-26T04:56:13.598Z,101305.63
2023-02-26T04:58:43.678Z,101314.19
2023-02-26T05:01:18.682Z,101320.50
2023-02-26T05:03:48.785Z,101320.97
2023-02-26T05:06:18.990Z,101319.84
2023-02-26T05:08:51.609Z,101323.66
2023-02-26T05:11:22.270Z,101331.09
2023-02-26T05:13:52.288Z,101329.75
2023-02-26T05:16:22.339Z,101335.16
2023-02-26T05:18:52.432Z,101334.47
2023-02-26T05:21:24.581Z,101328.25
2023-02-26T05:23:58.734Z,101341.75
2023-02-26T05:26:28.718Z,101344.00
2023-02-26T05:28:58.680Z,101352.56
2023-02-26T05:31:30.235Z,101354.63
2023-02-26T05:34:00.209Z,101360.47
2023-02-26T05:36:30.275Z,101376.00
2023-02-26T05:39:02.849Z,101380.03
2023-02-26T05:41:32.717Z,101378.22
2023-02-26T05:44:02.772Z,101378.22
2023-02-26T05:46:32.904Z,101379.78
2023-02-26T05:49:03.343Z,101353.91
2023-02-26T05:51:34.113Z,101392.13
2023-02-26T05:54:07.053Z,101387.41
2023-02-26T05:56:36.957Z,101404.28
2023-02-26T05:59:07.038Z,101379.53
2023-02-26T06:01:37.373Z,101397.97
2023-02-26T06:04:07.534Z,101402.00
2023-02-26T06:06:38.037Z,101406.94
2023-02-26T06:09:11.725Z,101415.25
2023-02-26T06:11:41.888Z,101383.75
2023-02-26T06:14:11.875Z,101427.13
2023-02-26T06:16:41.966Z,101428.72
2023-02-26T06:19:11.904Z,101445.34
2023-02-26T06:21:41.919Z,101442.41
2023-02-26T06:24:14.477Z,101446.44
2023-02-26T06:26:44.605Z,101445.09
2023-02-26T06:29:14.514Z,101416.25
2023-02-26T06:31:44.615Z,101453.63
2023-02-26T06:34:14.635Z,101436.28
2023-02-26T06:36:45.232Z,101456.75
2023-02-26T06:39:17.708Z,101465.97
2023-02-26T06:41:47.877Z,101472.47
2023-02-26T06:44:17.977Z,101466.63
2023-02-26T06:46:48.037Z,101474.03
2023-02-26T06:49:17.989Z,101481.44
2023-02-26T06:51:48.513Z,101480.09
2023-02-26T06:54:21.313Z,101484.81
2023-02-26T06:56:51.247Z,101474.69
2023-02-26T06:59:22.119Z,101495.59
2023-02-26T07:01:52.227Z,101498.06
2023-02-26T07:04:22.165Z,101497.16
2023-02-26T07:06:52.466Z,101448.28
2023-02-26T07:09:25.124Z,101511.09
2023-02-26T07:11:55.209Z,101520.06
2023-02-26T07:14:25.347Z,101523.22
2023-02-26T07:16:55.310Z,101529.09
2023-02-26T07:19:25.267Z,101525.50
2023-02-26T07:21:55.430Z,101535.84
2023-02-26T07:24:28.044Z,101528.91
2023-02-26T07:26:58.005Z,101536.13
2023-02-26T07:29:28.302Z,101516.75
2023-02-26T07:31:58.783Z,101552.53
2023-02-26T07:34:28.935Z,101554.34
2023-02-26T07:36:59.256Z,101558.41
2023-02-26T07:39:31.891Z,101559.97
2023-02-26T07:42:01.952Z,101569.03
2023-02-26T07:44:31.961Z,101554.63
2023-02-26T07:47:01.972Z,101576.06
2023-02-26T07:49:32.668Z,101578.56
2023-02-26T07:52:02.784Z,101576.34
2023-02-26T07:54:35.485Z,101575.69
2023-02-26T07:57:05.506Z,101580.66
2023-02-26T07:59:36.068Z,101597.97
2023-02-26T08:02:06.190Z,101605.63
2023-02-26T08:04:36.630Z,101597.78
2023-02-26T08:07:07.669Z,101598.69
2023-02-26T08:09:40.590Z,101605.84
2023-02-26T08:12:10.649Z,101610.38
2023-02-26T08:14:41.740Z,101607.69
2023-02-26T08:17:12.826Z,101616.72
2023-02-26T08:19:42.847Z,101568.28
2023-02-26T08:22:12.886Z,101618.28
2023-02-26T08:24:45.662Z,101618.28
2023-02-26T08:27:15.709Z,101623.91
2023-02-26T08:29:46.478Z,101623.47
2023-02-26T08:32:17.940Z,101639.47
2023-02-26T08:34:48.203Z,101637.84
2023-02-26T08:37:18.196Z,101636.28
2023-02-26T08:39:50.776Z,101642.81
2023-02-26T08:42:20.821Z,101658.16
2023-02-26T08:44:51.017Z,101656.34
2023-02-26T08:47:28.493Z,101621.22
2023-02-26T08:50:03.286Z,101665.38
2023-02-26T08:52:34.093Z,101646.88
2023-02-26T08:55:06.981Z,101657.00
2023-02-26T08:57:37.045Z,101668.06
2023-02-26T09:00:10.549Z,101673.00
2023-02-26T09:02:42.599Z,101670.06
2023-02-26T09:05:13.096Z,101684.69
2023-02-26T09:07:43.325Z,101685.56
2023-02-26T09:10:17.248Z,101688.44
2023-02-26T09:12:47.865Z,101694.06
2023-02-26T09:15:18.164Z,101689.13
2023-02-26T09:17:49.444Z,101684.38
2023-02-26T09:20:20.288Z,101678.50
2023-02-26T09:22:50.804Z,101692.91
2023-02-26T09:25:24.075Z,101684.81
2023-02-26T09:27:54.212Z,101628.13
2023-02-26T09:30:27.103Z,101639.13
2023-02-26T09:32:57.463Z,101665.91
2023-02-26T09:35:27.797Z,101689.09
2023-02-26T09:37:57.954Z,101710.94
2023-02-26T09:40:42.826Z,101706.13
2023-02-26T09:43:38.506Z,101710.59
2023-02-26T09:46:17.065Z,101702.94
2023-02-26T09:48:49.054Z,101707.47
2023-02-26T09:51:24.455Z,101708.56
2023-02-26T09:53:56.333Z,101708.34
2023-02-26T09:56:31.061Z,101711.88
2023-02-26T09:59:06.782Z,101717.91
2023-02-26T10:01:43.867Z,101710.88
2023-02-26T10:04:24.963Z,101720.25
2023-02-26T10:07:06.737Z,101723.34
2023-02-26T10:09:50.477Z,101723.31
2023-02-26T10:12:26.540Z,101725.69
2023-02-26T10:15:01.788Z,101731.81
2023-02-26T10:17:41.736Z,101733.47
2023-02-26T10:20:20.944Z,101733.94
2023-02-26T10:23:01.217Z,101726.13
2023-02-26T10:25:37.637Z,101747.19
2023-02-26T10:28:40.420Z,101747.66
2023-02-26T10:31:20.078Z,101743.66
2023-02-26T10:34:00.363Z,101750.16
2023-02-26T10:36:37.695Z,101760.72
2023-02-26T10:39:19.563Z,101741.69
2023-02-26T10:41:50.152Z,101738.28
2023-02-26T10:44:31.494Z,101744.94
2023-02-26T10:47:13.022Z,101741.06
2023-02-26T10:49:54.399Z,101757.88
2023-02-26T10:52:27.563Z,101744.19
2023-02-26T10:55:42.307Z,101757.63
2023-02-26T10:58:16.177Z,101751.88
2023-02-26T11:00:54.714Z,101755.41
2023-02-26T11:03:35.572Z,101765.88
2023-02-26T11:06:07.461Z,101743.41
2023-02-26T11:08:42.419Z,101766.41
2023-02-26T11:11:34.549Z,101764.22
2023-02-26T11:14:08.483Z,101772.41
2023-02-26T11:16:44.592Z,101767.50
2023-02-26T11:19:17.905Z,101779.28
2023-02-26T11:21:50.476Z,101781.38
2023-02-26T11:24:29.174Z,101771.59
2023-02-26T11:27:04.212Z,101782.91
2023-02-26T11:29:45.023Z,101779.94
2023-02-26T11:32:21.410Z,101787.13
2023-02-26T11:34:54.405Z,101774.78
2023-02-26T11:37:27.854Z,101778.69
2023-02-26T11:40:00.902Z,101772.53
2023-02-26T11:42:31.369Z,101776.59
2023-02-26T11:45:04.262Z,101782.22
2023-02-26T11:47:36.597Z,101778.94
2023-02-26T11:50:18.775Z,101776.38
2023-02-26T11:52:57.308Z,101777.75
2023-02-26T11:55:32.374Z,101766.41
2023-02-26T11:58:02.382Z,101775.94
2023-02-26T12:00:40.411Z,101770.63
2023-02-26T12:03:22.073Z,101769.66
2023-02-26T12:05:53.637Z,101768.59
2023-02-26T12:08:28.300Z,101759.25
2023-02-26T12:11:13.406Z,101773.25
2023-02-26T12:14:07.904Z,101767.63
2023-02-26T12:16:54.743Z,101775.56
2023-02-26T12:19:39.423Z,101767.88
2023-02-26T12:22:38.256Z,101774.78
2023-02-26T12:25:45.902Z,101765.91
2023-02-26T12:28:36.805Z,101770.50
2023-02-26T12:31:36.840Z,101773.97
2023-02-26T12:34:28.725Z,101769.38
2023-02-26T12:37:17.144Z,101772.75
2023-02-26T12:39:57.781Z,101770.19
2023-02-26T12:42:42.652Z,101759.31
2023-02-26T12:45:31.020Z,101748.63
2023-02-26T12:48:27.453Z,101777.19
2023-02-26T12:51:11.005Z,101766.63
2023-02-26T12:54:02.199Z,101767.03
2023-02-26T12:56:57.833Z,101763.56
2023-02-26T12:59:52.083Z,101782.22
2023-02-26T13:03:04.965Z,101774.63
2023-02-26T13:05:55.656Z,101770.03
2023-02-26T13:08:39.400Z,101767.28
2023-02-26T13:11:26.073Z,101759.69
2023-02-26T13:14:25.773Z,101753.53
2023-02-26T13:17:07.241Z,101758.44
2023-02-26T13:19:49.403Z,101767.16
2023-02-26T13:22:26.848Z,101720.81
2023-02-26T13:25:04.223Z,101760.53
2023-02-26T13:27:37.689Z,101753.47
2023-02-26T13:30:26.818Z,101760.69
2023-02-26T13:32:59.442Z,101742.88
2023-02-26T13:35:34.553Z,101766.28
2023-02-26T13:38:13.494Z,101763.44
2023-02-26T13:40:59.995Z,101765.22
2023-02-26T13:43:51.432Z,101764.41
2023-02-26T13:46:36.433Z,101767.19
2023-02-26T13:49:16.606Z,101766.50
2023-02-26T13:51:49.294Z,101764.97
2023-02-26T13:54:37.833Z,101740.09
2023-02-26T13:57:28.148Z,101754.56
2023-02-26T14:00:05.282Z,101761.28
2023-02-26T14:02:46.718Z,101755.00
2023-02-26T14:06:00.629Z,101764.69
2023-02-26T14:08:46.639Z,101763.03
2023-02-26T14:11:48.641Z,101765.91
2023-02-26T14:14:29.332Z,101754.28
2023-02-26T14:17:31.365Z,101761.88
2023-02-26T14:20:26.503Z,101752.81
2023-02-26T14:23:14.852Z,101758.44
2023-02-26T14:25:50.598Z,101749.84
2023-02-26T14:28:25.034Z,101733.19
2023-02-26T14:31:17.206Z,101735.28
2023-02-26T14:33:51.056Z,101770.22
2023-02-26T14:36:33.184Z,101768.56
2023-02-26T14:39:09.397Z,101767.09
2023-02-26T14:41:43.925Z,101768.28
2023-02-26T14:44:28.319Z,101700.47
2023-02-26T14:47:01.955Z,101767.84
2023-02-26T14:49:36.808Z,101765.91
2023-02-26T14:52:28.666Z,101768.81
2023-02-26T14:55:13.816Z,101770.53
2023-02-26T14:57:54.153Z,101764.28
2023-02-26T15:00:36.046Z,101770.94
2023-02-26T15:03:32.684Z,101767.31
2023-02-26T15:06:17.324Z,101773.94
2023-02-26T15:08:54.417Z,101767.78
2023-02-26T15:11:47.310Z,101764.88
2023-02-26T15:14:48.226Z,101769.81
2023-02-26T15:17:36.814Z,101773.88
2023-02-26T15:20:24.713Z,101769.50
2023-02-26T15:23:11.402Z,101777.78
2023-02-26T15:25:44.420Z,101774.94
2023-02-26T15:28:18.236Z,101778.75
2023-02-26T15:30:51.846Z,101748.53
2023-02-26T15:33:23.958Z,101786.41
2023-02-26T15:36:10.252Z,101784.47
2023-02-26T15:38:45.516Z,101783.59
2023-02-26T15:41:17.002Z,101792.78
2023-02-26T15:43:51.202Z,101792.81
2023-02-26T15:46:23.853Z,101795.91
2023-02-26T15:48:53.962Z,101803.56
2023-02-26T15:51:27.840Z,101792.63
2023-02-26T15:54:03.164Z,101792.97
2023-02-26T15:56:37.008Z,101796.25
2023-02-26T15:59:14.290Z,101793.81
2023-02-26T16:01:45.234Z,101798.69
2023-02-26T16:04:18.297Z,101811.00
2023-02-26T16:06:52.954Z,101793.03
2023-02-26T16:09:28.054Z,101815.59
2023-02-26T16:12:01.227Z,101807.00
2023-02-26T16:14:39.907Z,101808.78
2023-02-26T16:17:13.978Z,101814.22
2023-02-26T16:19:47.480Z,101816.09
2023-02-26T16:22:26.967Z,101808.13
2023-02-26T16:25:02.138Z,101818.06
2023-02-26T16:27:34.705Z,101819.19
2023-02-26T16:30:07.328Z,101793.03
2023-02-26T16:32:38.637Z,101827.28
2023-02-26T16:35:14.667Z,101828.59
2023-02-26T16:37:50.376Z,101832.25
2023-02-26T16:40:24.195Z,101836.81
2023-02-26T16:42:57.478Z,101838.25
2023-02-26T16:45:49.489Z,101841.06
2023-02-26T16:48:25.411Z,101848.34
2023-02-26T16:51:01.021Z,101859.31
2023-02-26T16:53:40.382Z,101858.03
2023-02-26T16:56:16.937Z,101861.22
2023-02-26T16:58:48.632Z,101881.63
2023-02-26T17:01:21.435Z,101836.56
2023-02-26T17:03:56.567Z,101879.81
2023-02-26T17:06:26.805Z,101886.06
2023-02-26T17:09:01.270Z,101887.19
2023-02-26T17:11:33.340Z,101891.50
2023-02-26T17:14:18.043Z,101859.28
2023-02-26T17:16:49.041Z,101897.41
2023-02-26T17:19:19.997Z,101903.31
2023-02-26T17:21:51.970Z,101902.69
2023-02-26T17:24:28.526Z,101914.03
2023-02-26T17:26:58.750Z,101912.91
2023-02-26T17:29:33.777Z,101913.19
2023-02-26T17:32:03.995Z,101925.63
2023-02-26T17:34:35.023Z,101913.19
2023-02-26T17:37:07.796Z,101917.88
2023-02-26T17:39:40.571Z,101918.31
2023-02-26T17:42:14.348Z,101917.59
2023-02-26T17:44:44.608Z,101924.38
2023-02-26T17:47:19.010Z,101922.81
2023-02-26T17:49:49.571Z,101888.16
2023-02-26T17:52:20.413Z,101876.25
2023-02-26T17:54:53.279Z,101934.00
2023-02-26T17:57:24.528Z,101939.66
2023-02-26T17:59:54.768Z,101924.09
2023-02-26T18:02:27.290Z,101944.88
2023-02-26T18:04:57.631Z,101929.31
2023-02-26T18:07:28.354Z,101952.38
2023-02-26T18:10:10.222Z,101949.22
2023-02-26T18:12:40.702Z,101956.25
2023-02-26T18:15:12.338Z,101880.03
2023-02-26T18:17:43.263Z,101959.66
2023-02-26T18:20:22.700Z,101959.22
2023-02-26T18:22:53.214Z,101961.94
2023-02-26T18:25:26.121Z,101956.94
2023-02-26T18:28:00.492Z,101964.34
2023-02-26T18:30:31.428Z,101962.78
2023-02-26T18:33:01.671Z,101964.59
2023-02-26T18:35:34.252Z,101963.19
2023-02-26T18:38:04.405Z,101966.41
2023-02-26T18:40:37.397Z,101963.91
2023-02-26T18:43:08.123Z,101954.81
2023-02-26T18:45:38.126Z,101959.97
2023-02-26T18:48:09.301Z,101972.63
2023-02-26T18:50:39.555Z,101962.72
2023-02-26T18:53:09.596Z,101963.69
2023-02-26T18:55:45.549Z,101971.41
2023-02-26T18:58:15.645Z,101938.91
2023-02-26T19:00:45.553Z,101962.16
2023-02-26T19:03:15.483Z,101972.81
2023-02-26T19:05:45.657Z,101967.84
2023-02-26T19:08:15.822Z,101971.44
2023-02-26T19:10:48.561Z,101970.09
2023-02-26T19:13:18.614Z,101975.91
2023-02-26T19:15:49.665Z,101969.19
2023-02-26T19:18:20.705Z,101975.78
2023-02-26T19:20:50.778Z,101986.41
2023-02-26T19:23:21.041Z,101962.50
2023-02-26T19:25:54.169Z,101988.22
2023-02-26T19:28:24.474Z,101984.63
2023-02-26T19:30:57.465Z,101962.53
2023-02-26T19:33:27.784Z,102000.44
2023-02-26T19:35:58.737Z,101968.41
2023-02-26T19:38:29.651Z,102007.22
2023-02-26T19:41:02.432Z,102013.09
2023-02-26T19:43:32.351Z,102007.91
2023-02-26T19:46:02.458Z,102012.84
2023-02-26T19:48:32.852Z,102011.06
2023-02-26T19:51:03.551Z,102015.31
2023-02-26T19:53:34.053Z,102014.44
2023-02-26T19:56:09.054Z,101979.19
2023-02-26T19:58:39.322Z,102019.81
2023-02-26T20:01:09.640Z,102026.56
2023-02-26T20:03:39.776Z,102023.63
2023-02-26T20:06:11.250Z,102030.88
2023-02-26T20:08:42.497Z,102030.38
2023-02-26T20:11:15.772Z,102035.34
2023-02-26T20:13:46.048Z,102028.78
2023-02-26T20:16:16.504Z,102042.75
2023-02-26T20:18:47.098Z,102032.34
2023-02-26T20:21:17.527Z,102026.22
2023-02-26T20:23:47.615Z,102044.31
2023-02-26T20:26:20.520Z,102035.94
2023-02-26T20:28:50.780Z,102049.03
2023-02-26T20:31:21.186Z,102053.50
2023-02-26T20:33:51.361Z,102057.09
2023-02-26T20:36:28.993Z,102046.44
2023-02-26T20:38:59.022Z,102071.75
2023-02-26T20:41:31.706Z,102075.56
2023-02-26T20:44:01.748Z,102085.69
2023-02-26T20:46:33.147Z,102075.72
2023-02-26T20:49:03.622Z,102082.03
2023-02-26T20:51:34.138Z,102093.06
2023-02-26T20:54:04.058Z,102093.25
2023-02-26T20:56:36.812Z,102092.34
2023-02-26T20:59:07.805Z,102088.97
2023-02-26T21:01:38.203Z,102092.53
2023-02-26T21:04:10.284Z,102097.03
2023-02-26T21:06:40.252Z,102098.38
2023-02-26T21:09:11.322Z,102103.53
2023-02-26T21:11:45.011Z,102090.19
2023-02-26T21:14:15.240Z,102078.88
2023-02-26T21:16:45.318Z,102102.34
2023-02-26T21:19:15.499Z,102098.97
2023-02-26T21:21:45.550Z,102100.31
2023-02-26T21:24:15.704Z,102110.88
2023-02-26T21:26:48.313Z,102111.31
2023-02-26T21:29:18.468Z,102113.56
2023-02-26T21:31:53.982Z,102096.31
2023-02-26T21:34:33.666Z,102099.28
2023-02-26T21:37:04.433Z,102117.75
2023-02-26T21:39:34.771Z,102114.38
2023-02-26T21:42:08.132Z,102115.94
2023-02-26T21:44:39.019Z,102111.88
2023-02-26T21:47:09.062Z,102116.81
2023-02-26T21:49:39.595Z,102120.19
2023-02-26T21:52:10.434Z,102119.94
2023-02-26T21:54:40.647Z,102126.25
2023-02-26T21:57:13.331Z,102119.19
2023-02-26T21:59:43.464Z,102130.22
2023-02-26T22:02:15.149Z,102132.25
2023-02-26T22:04:45.649Z,102084.56
2023-02-26T22:07:15.817Z,102108.75
2023-02-26T22:09:47.514Z,102125.53
2023-02-26T22:12:20.835Z,102124.00
2023-02-26T22:14:51.109Z,102127.38
2023-02-26T22:17:23.013Z,102132.84
2023-02-26T22:19:53.628Z,102134.44
2023-02-26T22:22:23.804Z,102132.41
2023-02-26T22:24:53.882Z,102133.06
2023-02-26T22:27:26.416Z,102138.63
2023-02-26T22:29:56.357Z,102128.44
2023-02-26T22:32:27.059Z,102133.09
2023-02-26T22:34:57.486Z,102141.88
2023-02-26T22:37:28.043Z,102132.31
2023-02-26T22:39:58.300Z,102098.47
2023-02-26T22:42:30.856Z,102140.28
2023-02-26T22:45:00.798Z,102140.06
2023-02-26T22:47:30.857Z,102140.97
2023-02-26T22:50:00.905Z,102148.16
2023-02-26T22:52:30.852Z,102115.50
2023-02-26T22:55:01.055Z,102152.16
2023-02-26T22:57:33.787Z,102153.88
2023-02-26T23:00:04.683Z,102156.53
2023-02-26T23:02:34.663Z,102154.91
2023-02-26T23:05:04.679Z,102158.03
2023-02-26T23:07:35.059Z,102167.47
2023-02-26T23:10:05.187Z,102171.25
2023-02-26T23:12:38.598Z,102161.06
2023-02-26T23:15:10.270Z,102161.00
2023-02-26T23:17:40.187Z,102175.00
2023-02-26T23:20:13.899Z,102173.69
2023-02-26T23:22:45.118Z,102177.72
2023-02-26T23:25:15.715Z,102168.66
2023-02-26T23:27:48.744Z,102173.84
2023-02-26T23:30:21.864Z,102169.81
2023-02-26T23:32:52.372Z,102174.75
2023-02-26T23:35:22.448Z,102170.03
2023-02-26T23:37:52.595Z,102183.00
2023-02-26T23:40:22.915Z,102176.78
2023-02-26T23:42:56.296Z,102124.31
2023-02-26T23:45:26.555Z,102167.34
2023-02-26T23:47:56.752Z,102179.13
2023-02-26T23:50:26.932Z,102179.78
2023-02-26T23:52:57.290Z,102183.19
2023-02-26T23:55:27.468Z,102184.09
2023-02-26T23:58:00.044Z,102184.09
